createdAt,value
2022-09-23T00:02:52.258Z,13.48
2022-09-23T00:07:55.223Z,11.80
2022-09-23T00:12:58.091Z,11.70
2022-09-23T00:18:00.074Z,11.60
2022-09-23T00:23:02.556Z,13.07
2022-09-23T00:28:04.672Z,15.75
2022-09-23T00:33:06.722Z,12.77
2022-09-23T00:38:08.711Z,11.80
2022-09-23T00:43:14.814Z,12.73
2022-09-23T00:48:20.616Z,11.82
2022-09-23T00:53:26.470Z,12.43
2022-09-23T00:58:32.768Z,9.45
2022-09-23T01:03:35.100Z,11.63
2022-09-23T01:08:37.592Z,9.98
2022-09-23T01:14:07.108Z,15.30
2022-09-23T01:19:43.586Z,9.88
2022-09-23T01:24:50.868Z,16.85
2022-09-23T01:30:04.785Z,12.50
2022-09-23T01:35:23.677Z,12.27
2022-09-23T01:40:49.064Z,10.43
2022-09-23T01:45:56.420Z,11.13
2022-09-23T01:51:39.164Z,11.02
2022-09-23T01:57:03.640Z,10.32
2022-09-23T02:02:52.353Z,13.48
2022-09-23T02:08:03.139Z,12.73
2022-09-23T02:13:16.174Z,13.13
2022-09-23T02:18:26.171Z,13.65
2022-09-23T02:23:41.357Z,13.25
2022-09-23T02:28:50.409Z,11.65
2022-09-23T02:34:19.048Z,12.85
2022-09-23T02:39:26.081Z,15.90
2022-09-23T02:44:28.936Z,11.95
2022-09-23T02:49:32.269Z,13.27
2022-09-23T02:54:35.294Z,17.17
2022-09-23T02:59:38.715Z,16.25
2022-09-23T03:04:56.933Z,19.33
2022-09-23T03:10:10.305Z,16.65
2022-09-23T03:15:35.478Z,17.02
2022-09-23T03:20:59.039Z,16.33
2022-09-23T03:26:06.921Z,16.52
2022-09-23T03:31:10.319Z,16.50
2022-09-23T03:36:34.831Z,15.00
2022-09-23T03:41:43.676Z,18.63
2022-09-23T03:46:49.704Z,16.48
2022-09-23T03:51:51.810Z,18.23
2022-09-23T03:56:57.624Z,25.83
2022-09-23T04:02:00.667Z,18.33
2022-09-23T04:07:03.066Z,17.65
2022-09-23T04:12:05.933Z,16.55
2022-09-23T04:17:08.798Z,19.52
2022-09-23T04:22:11.316Z,16.88
2022-09-23T04:27:13.372Z,15.80
2022-09-23T04:32:15.426Z,19.75
2022-09-23T04:37:17.496Z,19.17
2022-09-23T04:42:19.593Z,16.85
2022-09-23T04:47:21.688Z,18.23
2022-09-23T04:52:23.656Z,21.83
2022-09-23T04:57:26.100Z,16.20
2022-09-23T05:02:28.288Z,17.02
2022-09-23T05:07:30.445Z,19.38
2022-09-23T05:12:32.732Z,19.58
2022-09-23T05:17:37.213Z,18.67
2022-09-23T05:22:39.229Z,16.90
2022-09-23T05:27:41.692Z,19.25
2022-09-23T05:32:43.913Z,20.83
2022-09-23T05:37:45.969Z,22.92
2022-09-23T05:42:47.965Z,20.98
2022-09-23T05:47:49.948Z,19.65
2022-09-23T05:52:52.149Z,20.65
2022-09-23T05:57:54.155Z,17.60
2022-09-23T06:02:56.198Z,22.33
2022-09-23T06:07:59.264Z,16.80
2022-09-23T06:13:01.246Z,16.25
2022-09-23T06:18:03.807Z,19.02
2022-09-23T06:23:13.538Z,18.20
2022-09-23T06:28:15.559Z,17.77
2022-09-23T06:33:33.356Z,18.77
2022-09-23T06:38:44.549Z,18.10
2022-09-23T06:43:46.921Z,17.08
2022-09-23T06:48:50.949Z,18.40
2022-09-23T06:53:53.049Z,17.27
2022-09-23T06:58:55.026Z,16.95
2022-09-23T07:03:57.084Z,19.25
2022-09-23T07:08:59.138Z,17.83
2022-09-23T07:14:01.574Z,19.48
2022-09-23T07:19:03.569Z,19.30
2022-09-23T07:24:05.888Z,19.58
2022-09-23T07:29:07.945Z,19.80
2022-09-23T07:34:11.410Z,20.10
2022-09-23T07:39:13.521Z,18.55
2022-09-23T07:44:16.192Z,17.85
2022-09-23T07:49:18.248Z,17.27
2022-09-23T07:54:20.836Z,15.95
2022-09-23T07:59:23.391Z,19.92
2022-09-23T08:04:33.026Z,17.88
2022-09-23T08:09:41.222Z,19.33
2022-09-23T08:14:43.776Z,19.13
2022-09-23T08:19:45.804Z,21.30
2022-09-23T08:24:47.796Z,21.55
2022-09-23T08:29:49.810Z,18.73
2022-09-23T08:34:52.061Z,19.20
2022-09-23T08:39:54.074Z,16.20
2022-09-23T08:45:00.523Z,16.70
2022-09-23T08:50:13.316Z,14.60
2022-09-23T08:55:16.224Z,13.98
2022-09-23T09:00:23.491Z,18.63
2022-09-23T09:05:28.242Z,17.90
2022-09-23T09:10:39.439Z,13.00
2022-09-23T09:15:51.274Z,11.75
2022-09-23T09:21:00.124Z,14.63
2022-09-23T09:26:04.200Z,11.35
2022-09-23T09:31:38.428Z,13.40
2022-09-23T09:37:07.393Z,10.88
2022-09-23T09:42:17.980Z,11.45
2022-09-23T09:47:48.137Z,9.77
2022-09-23T09:52:56.096Z,9.88
2022-09-23T09:58:05.060Z,11.02
2022-09-23T10:03:13.227Z,11.50
2022-09-23T10:08:37.719Z,9.38
2022-09-23T10:13:39.898Z,12.93
2022-09-23T10:18:47.655Z,8.95
2022-09-23T10:24:01.504Z,8.50
2022-09-23T10:29:20.573Z,11.18
2022-09-23T10:34:27.486Z,9.48
2022-09-23T10:39:48.567Z,7.47
2022-09-23T10:45:43.331Z,7.60
2022-09-23T10:50:49.600Z,9.57
2022-09-23T10:56:08.542Z,9.10
2022-09-23T11:01:34.728Z,10.05
2022-09-23T11:06:54.718Z,8.48
2022-09-23T11:12:07.301Z,8.02
2022-09-23T11:17:27.008Z,10.68
2022-09-23T11:22:53.092Z,8.30
2022-09-23T11:28:23.315Z,10.35
2022-09-23T11:33:57.547Z,9.52
2022-09-23T11:39:05.851Z,9.38
2022-09-23T11:44:17.267Z,10.20
2022-09-23T11:49:45.982Z,7.50
2022-09-23T11:55:19.350Z,7.93
2022-09-23T12:00:27.276Z,6.55
2022-09-23T12:05:36.074Z,7.38
2022-09-23T12:10:52.812Z,7.53
2022-09-23T12:16:30.536Z,7.57
2022-09-23T12:21:56.629Z,6.55
2022-09-23T12:27:10.898Z,8.57
2022-09-23T12:32:19.213Z,10.63
2022-09-23T12:37:34.405Z,8.82
2022-09-23T12:42:44.031Z,9.85
2022-09-23T12:47:46.405Z,10.80
2022-09-23T12:52:48.428Z,11.15
2022-09-23T12:57:50.486Z,14.73
2022-09-23T13:03:17.823Z,13.02
2022-09-23T13:08:23.564Z,12.57
2022-09-23T13:13:34.261Z,15.27
2022-09-23T13:18:51.275Z,12.77
2022-09-23T13:24:28.235Z,9.25
2022-09-23T13:29:47.606Z,13.02
2022-09-23T13:35:04.118Z,18.45
2022-09-23T13:40:17.110Z,11.93
2022-09-23T13:45:23.089Z,13.05
2022-09-23T13:50:26.163Z,11.88
2022-09-23T13:55:39.886Z,11.38
2022-09-23T14:00:41.885Z,12.98
2022-09-23T14:05:44.790Z,10.43
2022-09-23T14:10:47.880Z,11.20
2022-09-23T14:15:52.123Z,12.32
2022-09-23T14:20:54.227Z,14.00
2022-09-23T14:25:58.737Z,12.40
2022-09-23T14:31:02.181Z,9.68
2022-09-23T14:36:34.199Z,10.77
2022-09-23T14:46:56.454Z,13.13
2022-09-23T14:52:01.079Z,12.48
2022-09-23T14:57:19.345Z,15.52
2022-09-23T15:02:28.909Z,12.02
2022-09-23T15:07:30.945Z,11.07
2022-09-23T15:12:32.963Z,12.95
2022-09-23T15:17:37.417Z,10.80
2022-09-23T15:22:48.687Z,15.35
2022-09-23T15:28:12.955Z,10.90
2022-09-23T15:33:16.122Z,9.48
2022-09-23T15:38:18.164Z,14.60
2022-09-23T15:43:24.034Z,9.93
2022-09-23T15:48:32.406Z,10.07
2022-09-23T15:53:36.420Z,10.15
2022-09-23T15:58:38.544Z,11.68
2022-09-23T16:03:40.560Z,11.55
2022-09-23T16:08:42.512Z,9.40
2022-09-23T16:13:44.522Z,13.07
2022-09-23T16:18:51.267Z,11.73
2022-09-23T16:23:54.424Z,10.18
2022-09-23T16:28:58.073Z,15.48
2022-09-23T16:34:02.215Z,11.75
2022-09-23T16:39:07.567Z,14.02
2022-09-23T16:44:10.739Z,12.05
2022-09-23T16:49:13.857Z,13.07
2022-09-23T16:54:17.283Z,10.00
2022-09-23T16:59:19.248Z,13.63
2022-09-23T17:04:22.541Z,10.20
2022-09-23T17:09:27.755Z,14.13
2022-09-23T17:14:31.411Z,13.93
2022-09-23T17:19:34.442Z,15.48
2022-09-23T17:24:36.425Z,16.08
2022-09-23T17:29:38.481Z,15.90
2022-09-23T17:34:43.938Z,13.52
2022-09-23T17:39:46.226Z,15.27
2022-09-23T17:44:48.961Z,21.17
2022-09-23T17:49:51.082Z,14.52
2022-09-23T17:54:54.975Z,18.55
2022-09-23T17:59:57.160Z,21.42
2022-09-23T18:04:59.205Z,15.10
2022-09-23T18:10:01.313Z,16.13
2022-09-23T18:15:03.645Z,13.68
2022-09-23T18:20:06.285Z,14.43
2022-09-23T18:25:22.978Z,15.52
2022-09-23T18:30:32.141Z,13.45
2022-09-23T18:35:34.166Z,14.18
2022-09-23T18:40:36.229Z,17.10
2022-09-23T18:45:38.610Z,15.30
2022-09-23T18:50:41.902Z,19.25
2022-09-23T18:55:43.917Z,18.00
2022-09-23T19:00:46.062Z,17.73
2022-09-23T19:05:48.392Z,16.52
2022-09-23T19:10:57.571Z,21.52
2022-09-23T19:16:09.675Z,21.58
2022-09-23T19:21:13.231Z,22.08
2022-09-23T19:26:17.941Z,22.13
2022-09-23T19:31:23.288Z,34.33
2022-09-23T19:36:34.017Z,26.10
2022-09-23T19:41:36.297Z,24.45
2022-09-23T19:46:42.813Z,26.08
2022-09-23T19:51:46.507Z,27.98
2022-09-23T19:56:49.841Z,26.38
2022-09-23T20:01:51.886Z,27.08
2022-09-23T20:06:54.143Z,24.45
2022-09-23T20:11:57.158Z,27.42
2022-09-23T20:17:00.273Z,23.40
2022-09-23T20:22:20.830Z,26.63
2022-09-23T20:27:24.193Z,25.10
2022-09-23T20:32:29.438Z,29.25
2022-09-23T20:37:32.944Z,24.25
2022-09-23T20:42:35.021Z,23.38
2022-09-23T20:47:37.013Z,22.60
2022-09-23T20:52:39.517Z,25.63
2022-09-23T20:57:41.809Z,21.73
2022-09-23T21:02:44.760Z,24.30
2022-09-23T21:07:47.003Z,23.15
2022-09-23T21:12:50.359Z,22.02
2022-09-23T21:17:52.416Z,21.90
2022-09-23T21:22:54.841Z,23.25
2022-09-23T21:27:58.333Z,22.67
2022-09-23T21:33:01.015Z,20.95
2022-09-23T21:38:03.044Z,18.88
2022-09-23T21:43:05.627Z,20.83
2022-09-23T21:48:08.097Z,27.92
2022-09-23T21:53:10.091Z,24.35
2022-09-23T21:58:12.065Z,22.92
2022-09-23T22:03:14.098Z,20.73
2022-09-23T22:08:16.055Z,26.80
2022-09-23T22:13:18.017Z,25.00
2022-09-23T22:18:20.383Z,25.70
2022-09-23T22:23:22.422Z,25.85
2022-09-23T22:28:43.051Z,26.65
2022-09-23T22:33:50.390Z,24.38
2022-09-23T22:38:59.064Z,25.08
2022-09-23T22:44:03.551Z,29.67
2022-09-23T22:49:07.323Z,28.63
2022-09-23T22:54:10.936Z,24.75
2022-09-23T22:59:13.453Z,29.48
2022-09-23T23:04:15.449Z,24.15
2022-09-23T23:09:18.890Z,25.90
2022-09-23T23:14:20.932Z,24.48
2022-09-23T23:19:23.543Z,21.98
2022-09-23T23:24:25.583Z,31.55
2022-09-23T23:29:27.725Z,30.25
2022-09-23T23:34:29.746Z,26.40
2022-09-23T23:39:33.693Z,27.58
2022-09-23T23:44:35.738Z,25.63
2022-09-23T23:49:38.257Z,26.25
2022-09-23T23:54:40.340Z,25.67
2022-09-23T23:59:42.500Z,27.25
